Ryusyou — JD2018 — position and weather

sailwx.info

Track history (hours):
 
Tides and Currents Weather Stations Pressure Air Temp Water Temp Dewpoint Dewpoint Depression Visibility Wind Speed Wind Dir Waves Ship Positions

Ryusyou

Last reported at 2018-Jun-21 08:00 UTC. Time now 2018-Jun-21 10:03 UTC.
Position N 34°24' E 134°14'.

Length 55 m; draft 4 m.

Type: Cargo ship. MMSI: 431602277.

Date/timePositionNaut miles runAvg speedWind from/ knotsBaromVisibWave heightAir tempDewpointWater temp
2018-Jun-21 08:00N 34°24' E 134°14'511.3
2018-Jun-21 07:31N 34°25' E 134°20'611.8
2018-Jun-21 06:58N 34°27' E 134°28'511.8
2018-Jun-21 06:30N 34°29' E 134°34'611.8
2018-Jun-21 06:00N 34°31' E 134°41'612.2
2018-Jun-21 05:30N 34°34' E 134°48'712.8
2018-Jun-21 04:58N 34°36' E 134°55'611.3
2018-Jun-21 04:25N 34°37' E 135°03'511.0
2018-Jun-21 04:00N 34°36' E 135°08'611.4
2018-Jun-21 03:29N 34°37' E 135°15'511.2
2018-Jun-21 03:01N 34°39' E 135°22'4 8.4
2018-Jun-21 02:29N 34°39' E 135°27'0 0.0
2018-Jun-20 17:44N 34°39' E 135°27'0 2.3
2018-Jun-20 17:31N 34°39' E 135°27'5 9.7
2018-Jun-20 17:00N 34°37' E 135°21'510.6
2018-Jun-20 16:30N 34°35' E 135°15'511.0
2018-Jun-20 16:00N 34°35' E 135°08'5 9.6
2018-Jun-20 15:30N 34°36' E 135°03'11 8.7
2018-Jun-20 14:11N 34°33' E 134°49'310.4
2018-Jun-20 13:54N 34°32' E 134°46'410.6
2018-Jun-20 13:30N 34°30' E 134°41'610.7
2018-Jun-20 12:59N 34°28' E 134°35'510.5
2018-Jun-20 12:28N 34°26' E 134°29'9 0.3
2018-Jun-19 03:32N 34°23' E 134°18'511.5
2018-Jun-19 03:06N 34°21' E 134°24'112.1
2018-Jun-19 02:59N 34°20' E 134°26'  
2018-Jun-16 13:58N 34°12' E 134°39'7 9.4
2018-Jun-16 13:16N 34°19' E 134°37'310.5
2018-Jun-16 13:00N 34°21' E 134°37'610.9
2018-Jun-16 12:30N 34°27' E 134°37'611.0
2018-Jun-16 11:59N 34°32' E 134°37'510.9
2018-Jun-16 11:30N 34°38' E 134°37'  
2018-Jun-14 05:02N 34°38' E 134°39'011.0
2018-Jun-14 05:01N 34°38' E 134°39'21 1.1
2018-Jun-13 10:17N 34°25' E 134°19'412.4
2018-Jun-13 09:58N 34°26' E 134°24'612.1
2018-Jun-13 09:30N 34°28' E 134°30'612.1
2018-Jun-13 09:00N 34°30' E 134°37'612.2
2018-Jun-13 08:30N 34°32' E 134°44'612.1
2018-Jun-13 08:00N 34°34' E 134°51'712.2
2018-Jun-13 07:28N 34°37' E 134°58'5 9.7
2018-Jun-13 07:00N 34°36' E 135°04'4 7.9
2018-Jun-13 06:30N 34°34' E 135°08'5 9.9
2018-Jun-13 05:58N 34°32' E 135°13'511.0
2018-Jun-13 05:29N 34°29' E 135°19'2 4.3
2018-Jun-13 04:55N 34°27' E 135°21'0 0.0
2018-Jun-13 04:19N 34°27' E 135°21'0 0.0
2018-Jun-13 03:31N 34°27' E 135°21'0 0.0
2018-Jun-13 03:25N 34°27' E 135°21'0 0.0
2018-Jun-13 02:55N 34°27' E 135°21'0 0.0
2018-Jun-13 02:25N 34°27' E 135°21'0 0.0
2018-Jun-13 01:13N 34°27' E 135°21'0 0.0
2018-Jun-13 00:43N 34°27' E 135°21'0 0.0
2018-Jun-12 13:07N 34°27' E 135°21'0 0.6
2018-Jun-12 13:00N 34°27' E 135°21'4 7.8
2018-Jun-12 12:30N 34°30' E 135°18'5 9.7
2018-Jun-12 12:00N 34°32' E 135°12'510.2
2018-Jun-12 11:30N 34°34' E 135°07'4 8.4
2018-Jun-12 11:00N 34°36' E 135°02'14 7.3
2018-Jun-12 09:04N 34°32' E 134°46'1 9.3
2018-Jun-12 08:56N 34°32' E 134°44'5 9.4
2018-Jun-12 08:25N 34°30' E 134°39'510.0
2018-Jun-12 07:56N 34°28' E 134°34'410.3
2018-Jun-12 07:30N 34°26' E 134°29'6 0.3
2018-Jun-11 09:37N 34°21' E 134°24'611.5
2018-Jun-11 09:07N 34°19' E 134°31'211.7
2018-Jun-11 08:58N 34°18' E 134°33'811.3
2018-Jun-11 08:16N 34°13' E 134°40'  
Track history (hours):
 
Tides and Currents Weather Stations Pressure Air Temp Water Temp Dewpoint Dewpoint Depression Visibility Wind Speed Wind Dir Waves Ship Positions

Ryusyou

Last reported at 2018-Jun-21 08:00 UTC. Time now 2018-Jun-21 10:03 UTC.
Position N 34°24' E 134°14'.

Length 55 m; draft 4 m.

Type: Cargo ship. MMSI: 431602277.

Date/timePositionNaut miles runAvg speedWind from/ knotsBaromVisibWave heightAir tempDewpointWater temp
2018-Jun-21 08:00N 34°24' E 134°14'511.3
2018-Jun-21 07:31N 34°25' E 134°20'611.8
2018-Jun-21 06:58N 34°27' E 134°28'511.8
2018-Jun-21 06:30N 34°29' E 134°34'611.8
2018-Jun-21 06:00N 34°31' E 134°41'612.2
2018-Jun-21 05:30N 34°34' E 134°48'712.8
2018-Jun-21 04:58N 34°36' E 134°55'611.3
2018-Jun-21 04:25N 34°37' E 135°03'511.0
2018-Jun-21 04:00N 34°36' E 135°08'611.4
2018-Jun-21 03:29N 34°37' E 135°15'511.2
2018-Jun-21 03:01N 34°39' E 135°22'4 8.4
2018-Jun-21 02:29N 34°39' E 135°27'0 0.0
2018-Jun-20 17:44N 34°39' E 135°27'0 2.3
2018-Jun-20 17:31N 34°39' E 135°27'5 9.7
2018-Jun-20 17:00N 34°37' E 135°21'510.6
2018-Jun-20 16:30N 34°35' E 135°15'511.0
2018-Jun-20 16:00N 34°35' E 135°08'5 9.6
2018-Jun-20 15:30N 34°36' E 135°03'11 8.7
2018-Jun-20 14:11N 34°33' E 134°49'310.4
2018-Jun-20 13:54N 34°32' E 134°46'410.6
2018-Jun-20 13:30N 34°30' E 134°41'610.7
2018-Jun-20 12:59N 34°28' E 134°35'510.5
2018-Jun-20 12:28N 34°26' E 134°29'9 0.3
2018-Jun-19 03:32N 34°23' E 134°18'511.5
2018-Jun-19 03:06N 34°21' E 134°24'112.1
2018-Jun-19 02:59N 34°20' E 134°26'  
2018-Jun-16 13:58N 34°12' E 134°39'7 9.4
2018-Jun-16 13:16N 34°19' E 134°37'310.5
2018-Jun-16 13:00N 34°21' E 134°37'610.9
2018-Jun-16 12:30N 34°27' E 134°37'611.0
2018-Jun-16 11:59N 34°32' E 134°37'510.9
2018-Jun-16 11:30N 34°38' E 134°37'  
2018-Jun-14 05:02N 34°38' E 134°39'011.0
2018-Jun-14 05:01N 34°38' E 134°39'21 1.1
2018-Jun-13 10:17N 34°25' E 134°19'412.4
2018-Jun-13 09:58N 34°26' E 134°24'612.1
2018-Jun-13 09:30N 34°28' E 134°30'612.1
2018-Jun-13 09:00N 34°30' E 134°37'612.2
2018-Jun-13 08:30N 34°32' E 134°44'612.1
2018-Jun-13 08:00N 34°34' E 134°51'712.2
2018-Jun-13 07:28N 34°37' E 134°58'5 9.7
2018-Jun-13 07:00N 34°36' E 135°04'4 7.9
2018-Jun-13 06:30N 34°34' E 135°08'5 9.9
2018-Jun-13 05:58N 34°32' E 135°13'511.0
2018-Jun-13 05:29N 34°29' E 135°19'2 4.3
2018-Jun-13 04:55N 34°27' E 135°21'0 0.0
2018-Jun-13 04:19N 34°27' E 135°21'0 0.0
2018-Jun-13 03:31N 34°27' E 135°21'0 0.0
2018-Jun-13 03:25N 34°27' E 135°21'0 0.0
2018-Jun-13 02:55N 34°27' E 135°21'0 0.0
2018-Jun-13 02:25N 34°27' E 135°21'0 0.0
2018-Jun-13 01:13N 34°27' E 135°21'0 0.0
2018-Jun-13 00:43N 34°27' E 135°21'0 0.0
2018-Jun-12 13:07N 34°27' E 135°21'0 0.6
2018-Jun-12 13:00N 34°27' E 135°21'4 7.8
2018-Jun-12 12:30N 34°30' E 135°18'5 9.7
2018-Jun-12 12:00N 34°32' E 135°12'510.2
2018-Jun-12 11:30N 34°34' E 135°07'4 8.4
2018-Jun-12 11:00N 34°36' E 135°02'14 7.3
2018-Jun-12 09:04N 34°32' E 134°46'1 9.3
2018-Jun-12 08:56N 34°32' E 134°44'5 9.4
2018-Jun-12 08:25N 34°30' E 134°39'510.0
2018-Jun-12 07:56N 34°28' E 134°34'410.3
2018-Jun-12 07:30N 34°26' E 134°29'6 0.3
2018-Jun-11 09:37N 34°21' E 134°24'611.5
2018-Jun-11 09:07N 34°19' E 134°31'211.7
2018-Jun-11 08:58N 34°18' E 134°33'811.3
2018-Jun-11 08:16N 34°13' E 134°40'  

Dump ship's entire track history